createdAt,value
2018-04-17T00:00:43.768Z,13.70
2018-04-17T00:03:11.220Z,13.70
2018-04-17T00:05:38.680Z,13.70
2018-04-17T00:08:07.044Z,13.80
2018-04-17T00:10:34.484Z,13.80
2018-04-17T00:13:01.953Z,13.80
2018-04-17T00:15:29.400Z,13.80
2018-04-17T00:17:56.852Z,13.80
2018-04-17T00:20:24.291Z,13.80
2018-04-17T00:22:51.749Z,13.70
2018-04-17T00:25:19.192Z,13.60
2018-04-17T00:27:46.732Z,13.60
2018-04-17T00:30:14.928Z,13.60
2018-04-17T00:32:42.391Z,13.60
2018-04-17T00:35:09.840Z,13.70
2018-04-17T00:37:37.293Z,13.70
2018-04-17T00:40:05.509Z,13.80
2018-04-17T00:42:32.996Z,13.70
2018-04-17T00:45:00.444Z,13.70
2018-04-17T00:47:27.899Z,13.60
2018-04-17T00:49:56.112Z,13.60
2018-04-17T00:52:23.585Z,13.60
2018-04-17T00:54:51.033Z,13.60
2018-04-17T00:57:18.496Z,13.60
2018-04-17T00:59:46.709Z,13.60
2018-04-17T01:02:14.169Z,13.60
2018-04-17T01:04:41.612Z,13.70
2018-04-17T01:07:09.841Z,13.70
2018-04-17T01:09:37.329Z,13.70
2018-04-17T01:12:04.741Z,13.70
2018-04-17T01:14:32.961Z,13.50
2018-04-17T01:17:00.411Z,13.40
2018-04-17T01:19:27.864Z,13.40
2018-04-17T01:21:56.131Z,13.20
2018-04-17T01:24:23.577Z,13.20
2018-04-17T01:26:51.027Z,13.20
2018-04-17T01:29:18.484Z,13.10
2018-04-17T01:31:45.957Z,13.20
2018-04-17T01:34:13.412Z,13.20
2018-04-17T01:36:40.868Z,13.20
2018-04-17T01:39:09.074Z,13.00
2018-04-17T01:41:36.537Z,13.00
2018-04-17T01:44:03.975Z,12.90
2018-04-17T01:46:32.224Z,12.90
2018-04-17T01:48:59.665Z,12.90
2018-04-17T01:51:27.130Z,12.80
2018-04-17T01:53:54.685Z,12.90
2018-04-17T01:56:22.912Z,13.00
2018-04-17T01:58:50.365Z,13.00
2018-04-17T02:01:17.807Z,13.00
2018-04-17T02:03:46.272Z,13.00
2018-04-17T02:06:14.512Z,13.00
2018-04-17T02:08:41.972Z,13.00
2018-04-17T02:11:09.429Z,12.90
2018-04-17T02:13:38.705Z,12.80
2018-04-17T02:16:06.149Z,12.80
2018-04-17T02:18:33.603Z,12.70
2018-04-17T02:21:01.047Z,12.50
2018-04-17T02:23:29.275Z,12.40
2018-04-17T02:25:56.716Z,12.40
2018-04-17T02:28:24.167Z,12.50
2018-04-17T02:33:26.409Z,12.40
2018-04-17T02:35:53.857Z,12.40
2018-04-17T02:38:22.076Z,12.60
2018-04-17T02:40:49.541Z,12.60
2018-04-17T02:43:17.040Z,12.40
2018-04-17T02:45:44.488Z,12.30
2018-04-17T02:48:11.949Z,12.20
2018-04-17T02:50:39.401Z,12.20
2018-04-17T02:53:06.865Z,12.10
2018-04-17T02:55:34.315Z,12.10
2018-04-17T02:58:02.550Z,12.10
2018-04-17T03:00:29.999Z,12.10
2018-04-17T03:02:57.472Z,12.10
2018-04-17T03:05:24.908Z,12.10
2018-04-17T03:07:53.130Z,12.10
2018-04-17T03:10:20.589Z,12.10
2018-04-17T03:12:48.044Z,12.10
2018-04-17T03:15:15.502Z,12.10
2018-04-17T03:17:43.720Z,12.00
2018-04-17T03:20:11.159Z,12.00
2018-04-17T03:22:39.396Z,12.10
2018-04-17T03:25:06.860Z,12.00
2018-04-17T03:27:34.324Z,12.10
2018-04-17T03:30:01.779Z,12.10
2018-04-17T03:32:29.363Z,12.00
2018-04-17T03:34:56.809Z,12.00
2018-04-17T03:37:24.272Z,11.90
2018-04-17T03:39:51.727Z,12.00
2018-04-17T03:42:19.960Z,12.00
2018-04-17T03:44:47.403Z,11.90
2018-04-17T03:47:14.910Z,11.90
2018-04-17T03:49:42.382Z,11.90
2018-04-17T03:52:09.859Z,11.90
2018-04-17T03:54:37.324Z,11.90
2018-04-17T03:57:04.802Z,11.90
2018-04-17T03:59:32.266Z,11.90
2018-04-17T04:01:59.748Z,11.90
2018-04-17T04:04:27.201Z,11.90
2018-04-17T04:06:55.450Z,11.90
2018-04-17T04:09:22.902Z,11.80
2018-04-17T04:11:50.371Z,11.80
2018-04-17T04:14:18.601Z,11.90
2018-04-17T04:16:57.926Z,11.80
2018-04-17T04:19:37.369Z,11.80
2018-04-17T04:22:16.913Z,11.70
2018-04-17T04:24:56.382Z,11.70
2018-04-17T04:27:23.875Z,11.70
2018-04-17T04:29:51.317Z,11.70
2018-04-17T04:32:18.777Z,11.60
2018-04-17T04:34:46.298Z,11.70
2018-04-17T04:37:13.716Z,11.70
2018-04-17T04:39:41.168Z,11.70
2018-04-17T04:42:08.638Z,11.70
2018-04-17T04:44:36.117Z,11.70
2018-04-17T04:47:03.580Z,11.80
2018-04-17T04:49:31.085Z,11.70
2018-04-17T04:51:58.550Z,11.70
2018-04-17T04:54:26.018Z,11.60
2018-04-17T04:56:53.469Z,11.70
2018-04-17T04:59:20.945Z,11.70
2018-04-17T05:01:48.413Z,11.80
2018-04-17T05:04:15.880Z,11.80
2018-04-17T05:06:43.324Z,11.70
2018-04-17T05:09:11.561Z,11.60
2018-04-17T05:11:39.017Z,11.60
2018-04-17T05:14:06.486Z,11.60
2018-04-17T05:16:33.945Z,11.60
2018-04-17T05:19:01.443Z,11.60
2018-04-17T05:21:28.892Z,11.60
2018-04-17T05:23:56.369Z,11.80
2018-04-17T05:26:23.816Z,11.80
2018-04-17T05:28:51.284Z,11.90
2018-04-17T05:31:18.741Z,11.90
2018-04-17T05:33:46.201Z,11.90
2018-04-17T05:36:14.442Z,12.00
2018-04-17T05:38:41.912Z,12.00
2018-04-17T05:41:09.383Z,12.00
2018-04-17T05:43:36.849Z,12.00
2018-04-17T05:46:04.317Z,12.10
2018-04-17T05:48:31.801Z,12.10
2018-04-17T05:50:59.263Z,12.20
2018-04-17T05:53:26.746Z,12.20
2018-04-17T05:55:54.272Z,12.20
2018-04-17T05:58:21.695Z,12.30
2018-04-17T06:00:49.151Z,12.40
2018-04-17T06:03:16.620Z,12.40
2018-04-17T06:05:44.077Z,12.40
2018-04-17T06:08:11.558Z,12.40
2018-04-17T06:10:39.013Z,12.40
2018-04-17T06:13:06.483Z,12.50
2018-04-17T06:15:33.932Z,12.50
2018-04-17T06:18:01.406Z,12.50
2018-04-17T06:20:28.862Z,12.50
2018-04-17T06:22:56.337Z,12.70
2018-04-17T06:25:23.815Z,12.70
2018-04-17T06:27:51.279Z,12.80
2018-04-17T06:30:18.737Z,12.90
2018-04-17T06:32:46.187Z,12.90
2018-04-17T06:35:13.649Z,12.90
2018-04-17T06:37:41.870Z,13.20
2018-04-17T06:40:09.329Z,13.20
2018-04-17T06:42:36.794Z,13.30
2018-04-17T06:45:04.270Z,13.40
2018-04-17T06:47:31.746Z,13.50
2018-04-17T06:49:59.188Z,13.70
2018-04-17T06:52:26.651Z,13.80
2018-04-17T06:54:54.872Z,13.90
2018-04-17T06:57:22.324Z,13.90
2018-04-17T06:59:49.802Z,14.00
2018-04-17T07:02:17.248Z,14.00
2018-04-17T07:04:44.725Z,14.00
2018-04-17T07:07:12.167Z,14.00
2018-04-17T07:09:40.419Z,14.60
2018-04-17T07:12:07.997Z,14.50
2018-04-17T07:14:35.465Z,14.90
2018-04-17T07:17:02.990Z,15.20
2018-04-17T07:19:30.406Z,15.50
2018-04-17T07:21:57.944Z,15.60
2018-04-17T07:24:25.413Z,15.50
2018-04-17T07:26:52.869Z,15.40
2018-04-17T07:29:20.337Z,15.40
2018-04-17T07:31:47.788Z,15.70
2018-04-17T07:34:16.030Z,15.90
2018-04-17T07:36:43.518Z,15.80
2018-04-17T07:39:11.160Z,16.00
2018-04-17T07:41:38.606Z,16.00
2018-04-17T07:44:06.076Z,16.10
2018-04-17T07:46:33.545Z,16.30
2018-04-17T07:49:06.599Z,16.40
2018-04-17T07:51:34.113Z,16.50
2018-04-17T07:54:02.329Z,16.60
2018-04-17T07:56:29.799Z,16.50
2018-04-17T07:58:57.260Z,16.50
2018-04-17T08:01:24.727Z,16.50
2018-04-17T08:03:52.212Z,16.60
2018-04-17T08:06:19.669Z,16.70
2018-04-17T08:08:47.132Z,16.60
2018-04-17T08:11:14.598Z,16.60
2018-04-17T08:13:42.069Z,16.60
2018-04-17T08:16:09.582Z,16.60
2018-04-17T08:18:37.093Z,16.60
2018-04-17T08:21:04.544Z,16.70
2018-04-17T08:23:32.786Z,16.80
2018-04-17T08:26:00.262Z,16.70
2018-04-17T08:28:27.728Z,16.60
2018-04-17T08:30:55.180Z,16.70
2018-04-17T08:33:22.637Z,16.80
2018-04-17T08:35:50.114Z,16.90
2018-04-17T08:38:17.557Z,16.80
2018-04-17T08:40:45.078Z,16.80
2018-04-17T08:43:12.524Z,17.00
2018-04-17T08:45:39.995Z,17.10
2018-04-17T08:48:07.450Z,17.40
2018-04-17T08:50:34.925Z,17.50
2018-04-17T08:53:02.385Z,17.50
2018-04-17T08:55:29.858Z,17.60
2018-04-17T08:57:57.318Z,17.80
2018-04-17T09:00:24.794Z,18.10
2018-04-17T09:02:52.258Z,18.00
2018-04-17T09:05:19.762Z,17.90
2018-04-17T09:07:47.284Z,17.80
2018-04-17T09:10:14.766Z,17.70
2018-04-17T09:12:42.221Z,17.80
2018-04-17T09:15:09.694Z,17.80
2018-04-17T09:17:37.158Z,17.80
2018-04-17T09:20:05.393Z,17.80
2018-04-17T09:22:32.845Z,17.80
2018-04-17T09:25:00.320Z,17.70
2018-04-17T09:27:27.887Z,17.80
2018-04-17T09:29:55.344Z,17.70
2018-04-17T09:32:22.796Z,17.80
2018-04-17T09:34:50.272Z,17.80
2018-04-17T09:37:17.741Z,17.80
2018-04-17T09:39:45.263Z,17.90
2018-04-17T09:42:12.728Z,18.20
2018-04-17T09:44:40.259Z,18.40
2018-04-17T09:47:07.754Z,18.40
2018-04-17T09:49:35.222Z,18.50
2018-04-17T09:52:02.689Z,18.80
2018-04-17T09:54:30.162Z,19.10
2018-04-17T09:56:57.668Z,19.60
2018-04-17T09:59:25.913Z,20.40
2018-04-17T10:01:53.378Z,20.30
2018-04-17T10:04:20.842Z,21.20
2018-04-17T10:06:48.298Z,21.80
2018-04-17T10:09:15.765Z,22.50
2018-04-17T10:11:43.237Z,22.90
2018-04-17T10:14:10.698Z,23.20
2018-04-17T10:16:38.155Z,23.60
2018-04-17T10:19:06.390Z,23.60
2018-04-17T10:21:33.878Z,23.60
2018-04-17T10:24:01.345Z,23.70
2018-04-17T10:26:29.572Z,23.00
2018-04-17T10:28:57.810Z,22.70
2018-04-17T10:31:25.284Z,22.70
2018-04-17T10:33:52.745Z,22.60
2018-04-17T10:36:20.200Z,22.40
2018-04-17T10:38:47.762Z,22.40
2018-04-17T10:41:15.236Z,22.10
2018-04-17T10:43:42.697Z,22.00
2018-04-17T10:46:10.169Z,21.90
2018-04-17T10:48:37.625Z,21.70
2018-04-17T10:51:05.110Z,21.60
2018-04-17T10:53:32.560Z,21.50
2018-04-17T10:56:00.024Z,21.70
2018-04-17T10:58:27.477Z,21.60
2018-04-17T11:00:55.700Z,21.90
2018-04-17T11:03:23.163Z,21.90
2018-04-17T11:05:50.629Z,22.30
2018-04-17T11:08:18.081Z,22.50
2018-04-17T11:10:45.540Z,22.80
2018-04-17T11:13:13.756Z,23.10
2018-04-17T11:15:41.215Z,23.10
2018-04-17T11:18:08.660Z,23.00
2018-04-17T11:20:36.889Z,23.40
2018-04-17T11:23:04.343Z,23.40
2018-04-17T11:25:31.810Z,23.60
2018-04-17T11:27:59.267Z,23.90
2018-04-17T11:30:26.734Z,24.20
2018-04-17T11:32:54.181Z,24.30
2018-04-17T11:35:21.727Z,24.50
2018-04-17T11:37:49.179Z,24.50
2018-04-17T11:40:16.645Z,24.60
2018-04-17T11:42:44.098Z,25.00
2018-04-17T11:45:11.565Z,25.50
2018-04-17T11:47:39.009Z,25.90
2018-04-17T11:50:07.239Z,26.30
2018-04-17T11:52:34.701Z,26.20
2018-04-17T11:55:02.166Z,26.60
2018-04-17T11:57:29.644Z,26.90
2018-04-17T11:59:57.103Z,27.20
2018-04-17T12:02:24.566Z,27.40
2018-04-17T12:04:52.026Z,27.60
2018-04-17T12:07:19.468Z,27.90
2018-04-17T12:09:47.696Z,27.80
2018-04-17T12:12:15.145Z,27.70
2018-04-17T12:14:42.667Z,27.70
2018-04-17T12:17:10.113Z,27.60
2018-04-17T12:19:37.577Z,27.30
2018-04-17T12:22:05.025Z,27.20
2018-04-17T12:24:32.493Z,27.30
2018-04-17T12:26:59.998Z,27.40
2018-04-17T12:29:28.172Z,27.20
2018-04-17T12:31:55.625Z,27.10
2018-04-17T12:34:23.081Z,27.20
2018-04-17T12:36:50.557Z,27.40
2018-04-17T12:39:18.021Z,27.60
2018-04-17T12:41:45.472Z,27.50
2018-04-17T12:44:13.696Z,27.40
2018-04-17T12:46:41.153Z,27.40
2018-04-17T12:49:08.670Z,27.30
2018-04-17T12:51:36.137Z,27.20
2018-04-17T12:54:03.589Z,27.30
2018-04-17T12:56:31.044Z,27.30
2018-04-17T12:58:58.496Z,27.40
2018-04-17T13:01:25.949Z,27.40
2018-04-17T13:03:54.175Z,27.20
2018-04-17T13:06:21.641Z,27.20
2018-04-17T13:08:49.092Z,27.10
2018-04-17T13:11:16.558Z,27.10
2018-04-17T13:13:44.006Z,27.10
2018-04-17T13:16:12.233Z,26.90
2018-04-17T13:18:39.681Z,26.90
2018-04-17T13:21:07.144Z,27.00
2018-04-17T13:23:34.590Z,27.00
2018-04-17T13:26:02.817Z,27.00
2018-04-17T13:28:30.264Z,27.00
2018-04-17T13:30:57.721Z,26.90
2018-04-17T13:33:25.954Z,26.70
2018-04-17T13:35:53.425Z,26.70
2018-04-17T13:38:20.878Z,26.60
2018-04-17T13:40:48.337Z,26.60
2018-04-17T13:43:15.798Z,26.60
2018-04-17T13:45:44.021Z,26.60
2018-04-17T13:48:11.480Z,26.60
2018-04-17T13:50:38.928Z,26.50
2018-04-17T13:53:06.372Z,26.40
2018-04-17T13:55:34.606Z,26.40
2018-04-17T13:58:02.061Z,26.30
2018-04-17T14:00:29.526Z,26.20
2018-04-17T14:02:56.969Z,26.10
2018-04-17T14:05:25.193Z,26.30
2018-04-17T14:07:52.645Z,26.30
2018-04-17T14:10:20.104Z,26.20
2018-04-17T14:12:48.330Z,26.00
2018-04-17T14:15:15.786Z,25.90
2018-04-17T14:17:43.252Z,26.00
2018-04-17T14:20:10.700Z,25.80
2018-04-17T14:22:38.158Z,25.70
2018-04-17T14:25:06.414Z,25.20
2018-04-17T14:27:33.860Z,25.20
2018-04-17T14:30:01.323Z,25.20
2018-04-17T14:32:28.783Z,25.20
2018-04-17T14:34:56.229Z,25.00
2018-04-17T14:37:24.448Z,24.90
2018-04-17T14:39:51.937Z,24.90
2018-04-17T14:42:19.402Z,24.80
2018-04-17T14:44:46.861Z,24.70
2018-04-17T14:47:14.313Z,24.70
2018-04-17T14:49:41.773Z,24.70
2018-04-17T14:52:09.378Z,24.60
2018-04-17T14:54:36.816Z,24.60
2018-04-17T14:57:04.276Z,24.40
2018-04-17T14:59:31.725Z,24.30
2018-04-17T15:01:59.949Z,24.10
2018-04-17T15:04:27.563Z,24.10
2018-04-17T15:06:55.020Z,24.10
2018-04-17T15:09:22.465Z,24.10
2018-04-17T15:11:49.930Z,24.10
2018-04-17T15:14:17.390Z,24.00
2018-04-17T15:16:44.854Z,23.90
2018-04-17T15:19:12.355Z,23.90
2018-04-17T15:21:39.812Z,23.70
2018-04-17T15:24:07.259Z,23.80
2018-04-17T15:26:34.723Z,23.80
2018-04-17T15:29:02.165Z,23.70
2018-04-17T15:31:30.397Z,23.60
2018-04-17T15:33:57.854Z,23.50
2018-04-17T15:36:25.331Z,23.50
2018-04-17T15:38:52.793Z,23.50
2018-04-17T15:41:20.251Z,23.70
2018-04-17T15:43:48.479Z,23.70
2018-04-17T15:46:15.933Z,23.60
2018-04-17T15:48:43.410Z,23.60
2018-04-17T15:51:10.869Z,23.40
2018-04-17T15:53:38.313Z,23.30
2018-04-17T15:56:05.797Z,23.20
2018-04-17T15:58:33.240Z,23.00
2018-04-17T16:01:01.498Z,22.50
2018-04-17T16:03:28.985Z,22.50
2018-04-17T16:05:56.416Z,22.30
2018-04-17T16:08:23.860Z,22.20
2018-04-17T16:10:51.326Z,22.30
2018-04-17T16:13:18.764Z,22.30
2018-04-17T16:15:47.002Z,22.10
2018-04-17T16:18:14.472Z,22.10
2018-04-17T16:20:41.930Z,22.10
2018-04-17T16:23:09.385Z,22.10
2018-04-17T16:25:36.850Z,22.00
2018-04-17T16:28:04.300Z,22.10
2018-04-17T16:30:32.530Z,22.10
2018-04-17T16:32:59.994Z,22.10
2018-04-17T16:35:27.434Z,22.10
2018-04-17T16:37:55.658Z,22.00
2018-04-17T16:40:23.109Z,22.00
2018-04-17T16:42:50.560Z,21.90
2018-04-17T16:45:18.787Z,21.70
2018-04-17T16:47:46.249Z,21.70
2018-04-17T16:50:13.697Z,21.60
2018-04-17T16:52:41.189Z,21.60
2018-04-17T16:55:08.666Z,21.50
2018-04-17T16:57:36.133Z,21.50
2018-04-17T17:00:03.598Z,21.40
2018-04-17T17:02:31.052Z,21.40
2018-04-17T17:04:58.500Z,21.20
2018-04-17T17:07:26.762Z,21.00
2018-04-17T17:09:54.200Z,21.00
2018-04-17T17:12:21.670Z,20.90
2018-04-17T17:14:49.145Z,20.90
2018-04-17T17:17:16.614Z,20.80
2018-04-17T17:19:44.069Z,20.80
2018-04-17T17:22:11.617Z,20.70
2018-04-17T17:24:39.823Z,20.60
2018-04-17T17:27:07.324Z,20.60
2018-04-17T17:29:34.758Z,20.50
2018-04-17T17:32:02.234Z,20.50
2018-04-17T17:34:29.685Z,20.40
2018-04-17T17:36:57.162Z,20.30
2018-04-17T17:39:24.596Z,20.30
2018-04-17T17:41:52.831Z,20.10
2018-04-17T17:44:20.285Z,20.20
2018-04-17T17:46:47.749Z,20.10
2018-04-17T17:49:15.221Z,20.00
2018-04-17T17:51:42.692Z,19.90
2018-04-17T17:54:10.133Z,19.80
2018-04-17T17:56:38.357Z,19.70
2018-04-17T17:59:05.814Z,19.70
2018-04-17T18:01:33.278Z,19.70
2018-04-17T18:04:00.730Z,19.60
2018-04-17T18:06:28.234Z,19.60
2018-04-17T18:08:55.677Z,19.50
2018-04-17T18:11:23.151Z,19.50
2018-04-17T18:13:50.593Z,19.50
2018-04-17T18:16:18.924Z,19.30
2018-04-17T18:18:46.360Z,19.30
2018-04-17T18:21:14.596Z,19.10
2018-04-17T18:23:42.053Z,19.10
2018-04-17T18:26:09.516Z,19.00
2018-04-17T18:28:37.025Z,18.90
2018-04-17T18:31:04.608Z,18.90
2018-04-17T18:33:32.834Z,18.80
2018-04-17T18:36:00.300Z,18.80
2018-04-17T18:38:27.748Z,18.70
2018-04-17T18:40:55.184Z,18.60
2018-04-17T18:43:22.648Z,18.60
2018-04-17T18:45:57.999Z,18.60
2018-04-17T18:48:25.480Z,18.50
2018-04-17T18:50:53.036Z,18.50
2018-04-17T18:53:20.612Z,18.40
2018-04-17T18:55:48.201Z,18.40
2018-04-17T18:58:16.049Z,18.40
2018-04-17T19:00:43.521Z,18.30
2018-04-17T19:03:10.968Z,18.30
2018-04-17T19:05:38.541Z,18.30
2018-04-17T19:08:06.006Z,18.30
2018-04-17T19:10:33.458Z,18.20
2018-04-17T19:13:00.926Z,18.20
2018-04-17T19:15:28.381Z,18.10
2018-04-17T19:17:56.618Z,18.10
2018-04-17T19:20:24.069Z,18.10
2018-04-17T19:22:51.547Z,18.00
2018-04-17T19:25:18.997Z,18.00
2018-04-17T19:27:46.522Z,18.00
2018-04-17T19:30:14.190Z,17.90
2018-04-17T19:32:41.686Z,17.90
2018-04-17T19:35:09.896Z,17.70
2018-04-17T19:37:37.362Z,17.70
2018-04-17T19:40:04.886Z,17.70
2018-04-17T19:42:33.169Z,17.70
2018-04-17T19:45:00.621Z,17.70
2018-04-17T19:47:28.081Z,17.70
2018-04-17T19:49:55.530Z,17.60
2018-04-17T19:52:23.015Z,17.50
2018-04-17T19:54:50.542Z,17.50
2018-04-17T19:57:18.757Z,17.70
2018-04-17T19:59:46.230Z,17.60
2018-04-17T20:02:13.702Z,17.60
2018-04-17T20:04:41.177Z,17.60
2018-04-17T20:07:08.634Z,17.60
2018-04-17T20:09:36.112Z,17.50
2018-04-17T20:12:03.556Z,17.50
2018-04-17T20:14:31.768Z,17.40
2018-04-17T20:16:59.339Z,17.30
2018-04-17T20:19:26.817Z,17.30
2018-04-17T20:21:54.274Z,17.20
2018-04-17T20:24:21.740Z,17.20
2018-04-17T20:26:49.309Z,17.30
2018-04-17T20:29:17.519Z,17.20
2018-04-17T20:31:45.039Z,17.20
2018-04-17T20:34:12.469Z,17.10
2018-04-17T20:36:42.572Z,17.00
2018-04-17T20:39:10.067Z,17.00
2018-04-17T20:41:37.518Z,17.00
2018-04-17T20:44:04.964Z,17.00
2018-04-17T20:46:32.435Z,16.90
2018-04-17T20:49:00.653Z,16.90
2018-04-17T20:51:28.180Z,16.90
2018-04-17T20:53:55.617Z,16.90
2018-04-17T20:56:23.162Z,16.80
2018-04-17T20:58:50.616Z,16.90
2018-04-17T21:01:18.093Z,16.80
2018-04-17T21:03:45.604Z,16.90
2018-04-17T21:06:13.049Z,16.80
2018-04-17T21:08:40.528Z,16.90
2018-04-17T21:11:07.980Z,17.00
2018-04-17T21:13:35.449Z,17.10
2018-04-17T21:16:02.906Z,17.00
2018-04-17T21:18:30.365Z,17.10
2018-04-17T21:20:57.826Z,17.10
2018-04-17T21:23:25.293Z,16.90
2018-04-17T21:25:53.509Z,16.40
2018-04-17T21:28:21.739Z,16.20
2018-04-17T21:30:49.195Z,16.20
2018-04-17T21:33:16.660Z,16.20
2018-04-17T21:35:44.104Z,16.10
2018-04-17T21:38:11.569Z,16.10
2018-04-17T21:40:39.020Z,16.00
2018-04-17T21:43:06.494Z,16.00
2018-04-17T21:45:33.956Z,16.00
2018-04-17T21:48:01.418Z,15.90
2018-04-17T21:50:29.630Z,15.90
2018-04-17T21:52:57.106Z,15.90
2018-04-17T21:55:24.560Z,15.90
2018-04-17T21:57:52.024Z,15.90
2018-04-17T22:00:19.491Z,15.80
2018-04-17T22:02:46.954Z,15.70
2018-04-17T22:05:14.410Z,15.60
2018-04-17T22:07:42.645Z,15.40
2018-04-17T22:10:10.087Z,15.40
2018-04-17T22:12:37.553Z,15.30
2018-04-17T22:15:05.026Z,15.30
2018-04-17T22:17:32.489Z,15.40
2018-04-17T22:19:59.939Z,15.50
2018-04-17T22:22:28.170Z,15.30
2018-04-17T22:24:55.625Z,15.30
2018-04-17T22:27:23.089Z,15.40
2018-04-17T22:29:50.580Z,15.30
2018-04-17T22:32:18.061Z,15.30
2018-04-17T22:34:45.517Z,15.30
2018-04-17T22:37:13.028Z,15.20
2018-04-17T22:39:41.349Z,15.10
2018-04-17T22:42:08.819Z,15.10
2018-04-17T22:44:36.279Z,15.10
2018-04-17T22:47:04.500Z,15.10
2018-04-17T22:49:31.965Z,15.10
2018-04-17T22:51:59.437Z,15.00
2018-04-17T22:54:26.884Z,15.00
2018-04-17T22:56:54.333Z,15.00
2018-04-17T22:59:22.566Z,15.10
2018-04-17T23:01:50.022Z,15.10
2018-04-17T23:04:17.485Z,15.10
2018-04-17T23:06:44.937Z,15.10
2018-04-17T23:09:12.433Z,15.10
2018-04-17T23:11:39.889Z,15.30
2018-04-17T23:14:07.369Z,15.40
2018-04-17T23:16:34.840Z,15.10
2018-04-17T23:19:02.323Z,15.10
2018-04-17T23:21:29.778Z,14.90
2018-04-17T23:23:57.249Z,14.90
2018-04-17T23:26:24.704Z,14.80
2018-04-17T23:28:52.169Z,14.70
2018-04-17T23:31:19.657Z,14.80
2018-04-17T23:33:47.136Z,14.60
2018-04-17T23:36:14.593Z,14.60
2018-04-17T23:38:42.066Z,14.60
2018-04-17T23:41:09.525Z,14.60
2018-04-17T23:43:36.984Z,14.60
2018-04-17T23:46:04.450Z,14.70
2018-04-17T23:48:31.922Z,14.70
2018-04-17T23:50:59.387Z,14.80
2018-04-17T23:53:26.877Z,14.80
2018-04-17T23:55:54.354Z,14.80
2018-04-17T23:58:21.821Z,14.80
